createdAt,value
2022-11-16T00:02:32.827Z,54.79
2022-11-16T00:05:00.966Z,55.06
2022-11-16T00:07:29.052Z,55.08
2022-11-16T00:09:57.138Z,55.12
2022-11-16T00:12:25.319Z,54.62
2022-11-16T00:14:53.419Z,54.90
2022-11-16T00:17:21.484Z,55.07
2022-11-16T00:19:49.588Z,55.20
2022-11-16T00:22:17.649Z,55.16
2022-11-16T00:24:45.743Z,55.07
2022-11-16T00:27:13.813Z,55.07
2022-11-16T00:29:42.026Z,54.84
2022-11-16T00:32:10.699Z,55.05
2022-11-16T00:34:40.597Z,54.78
2022-11-16T00:37:08.663Z,55.14
2022-11-16T00:39:36.876Z,54.95
2022-11-16T00:42:04.947Z,54.88
2022-11-16T00:44:33.183Z,55.08
2022-11-16T00:47:01.232Z,54.84
2022-11-16T00:49:29.926Z,55.03
2022-11-16T00:51:58.236Z,55.11
2022-11-16T00:54:26.474Z,55.05
2022-11-16T00:56:54.907Z,54.97
2022-11-16T00:59:23.941Z,55.06
2022-11-16T01:01:55.184Z,55.16
2022-11-16T01:04:23.832Z,55.19
2022-11-16T01:06:51.932Z,54.96
2022-11-16T01:09:19.975Z,55.19
2022-11-16T01:12:07.645Z,55.33
2022-11-16T01:14:45.538Z,55.25
2022-11-16T01:17:14.723Z,55.52
2022-11-16T01:19:42.918Z,55.49
2022-11-16T01:22:10.914Z,55.25
2022-11-16T01:24:38.995Z,55.43
2022-11-16T01:27:07.031Z,55.51
2022-11-16T01:29:38.498Z,55.76
2022-11-16T01:32:06.915Z,55.73
2022-11-16T01:34:36.681Z,55.96
2022-11-16T01:37:11.852Z,55.89
2022-11-16T01:39:42.563Z,55.91
2022-11-16T01:42:22.168Z,55.86
2022-11-16T01:45:42.824Z,55.83
2022-11-16T01:48:22.210Z,55.86
2022-11-16T01:50:51.703Z,56.11
2022-11-16T01:53:20.495Z,55.97
2022-11-16T01:55:53.260Z,55.97
2022-11-16T01:58:45.244Z,56.19
2022-11-16T02:01:22.484Z,56.09
2022-11-16T02:03:55.682Z,56.31
2022-11-16T02:06:27.024Z,56.38
2022-11-16T02:09:55.929Z,56.17
2022-11-16T02:12:57.956Z,56.58
2022-11-16T02:16:20.406Z,56.48
2022-11-16T02:19:12.721Z,56.48
2022-11-16T02:21:51.149Z,56.64
2022-11-16T02:24:37.206Z,57.06
2022-11-16T02:27:46.809Z,56.87
2022-11-16T02:30:18.373Z,57.10
2022-11-16T02:33:08.055Z,57.09
2022-11-16T02:35:52.476Z,57.33
2022-11-16T02:38:28.097Z,57.59
2022-11-16T02:41:22.483Z,57.71
2022-11-16T02:44:03.147Z,57.75
2022-11-16T02:46:43.106Z,57.82
2022-11-16T02:49:18.388Z,57.80
2022-11-16T02:51:51.071Z,57.81
2022-11-16T02:54:22.135Z,58.17
2022-11-16T02:57:26.723Z,57.95
2022-11-16T02:59:57.780Z,57.94
2022-11-16T03:02:50.561Z,58.09
2022-11-16T03:05:32.282Z,57.95
2022-11-16T03:08:34.407Z,57.70
2022-11-16T03:11:27.316Z,57.94
2022-11-16T03:14:08.814Z,58.08
2022-11-16T03:16:46.636Z,57.88
2022-11-16T03:19:22.499Z,58.07
2022-11-16T03:21:59.604Z,58.54
2022-11-16T03:24:28.048Z,58.31
2022-11-16T03:27:44.226Z,58.30
2022-11-16T03:30:23.741Z,58.50
2022-11-16T03:33:20.261Z,58.61
2022-11-16T03:35:55.993Z,58.47
2022-11-16T03:38:27.315Z,59.35
2022-11-16T03:41:04.171Z,59.52
2022-11-16T03:43:34.282Z,59.44
2022-11-16T03:46:04.906Z,60.61
2022-11-16T03:48:41.006Z,60.02
2022-11-16T03:51:15.458Z,61.05
2022-11-16T03:53:44.253Z,60.75
2022-11-16T03:56:14.742Z,61.18
2022-11-16T03:58:43.658Z,61.59
2022-11-16T04:01:12.488Z,61.51
2022-11-16T04:03:41.502Z,63.09
2022-11-16T04:06:30.488Z,62.72
2022-11-16T04:09:10.805Z,62.49
2022-11-16T04:11:58.805Z,62.30
2022-11-16T04:14:46.332Z,61.66
2022-11-16T04:17:38.158Z,61.37
2022-11-16T04:20:25.344Z,61.46
2022-11-16T04:23:31.080Z,60.88
2022-11-16T04:25:59.911Z,60.52
2022-11-16T04:28:34.446Z,60.29
2022-11-16T04:31:24.367Z,59.97
2022-11-16T04:34:18.520Z,59.70
2022-11-16T04:37:10.333Z,59.55
2022-11-16T04:39:39.870Z,59.59
2022-11-16T04:42:22.359Z,59.57
2022-11-16T04:45:11.543Z,59.14
2022-11-16T04:47:53.183Z,59.27
2022-11-16T04:50:25.242Z,59.11
2022-11-16T04:52:53.330Z,59.18
2022-11-16T04:55:21.647Z,59.05
2022-11-16T04:57:51.659Z,59.06
2022-11-16T05:00:20.199Z,58.79
2022-11-16T05:02:50.200Z,58.74
2022-11-16T05:05:18.780Z,58.79
2022-11-16T05:07:48.405Z,58.79
2022-11-16T05:10:23.106Z,58.65
2022-11-16T05:12:52.368Z,58.69
2022-11-16T05:15:20.572Z,58.61
2022-11-16T05:17:51.189Z,58.54
2022-11-16T05:20:41.962Z,58.60
2022-11-16T05:23:30.901Z,58.66
2022-11-16T05:26:04.142Z,58.64
2022-11-16T05:28:32.736Z,58.61
2022-11-16T05:31:01.173Z,58.58
2022-11-16T05:33:31.627Z,58.68
2022-11-16T05:36:00.331Z,58.75
2022-11-16T05:38:28.513Z,58.39
2022-11-16T05:40:59.597Z,58.42
2022-11-16T05:43:30.203Z,58.49
2022-11-16T05:46:25.306Z,58.50
2022-11-16T05:48:55.763Z,58.43
2022-11-16T05:51:25.428Z,58.52
2022-11-16T05:53:54.808Z,58.54
2022-11-16T05:56:24.426Z,58.64
2022-11-16T05:58:54.573Z,58.70
2022-11-16T06:01:23.035Z,58.79
2022-11-16T06:03:52.091Z,58.90
2022-11-16T06:06:20.757Z,58.80
2022-11-16T06:08:50.384Z,58.70
2022-11-16T06:11:22.802Z,58.84
2022-11-16T06:13:51.348Z,58.90
2022-11-16T06:16:20.046Z,58.87
2022-11-16T06:18:49.311Z,58.92
2022-11-16T06:21:20.036Z,59.01
2022-11-16T06:23:48.597Z,58.78
2022-11-16T06:26:17.655Z,58.69
2022-11-16T06:28:47.055Z,58.56
2022-11-16T06:31:15.620Z,58.68
2022-11-16T06:33:49.927Z,58.69
2022-11-16T06:36:23.171Z,58.69
2022-11-16T06:38:51.382Z,58.78
2022-11-16T06:41:21.266Z,58.85
2022-11-16T06:43:51.258Z,59.10
2022-11-16T06:46:22.460Z,58.83
2022-11-16T06:48:51.524Z,58.92
2022-11-16T06:51:19.824Z,58.89
2022-11-16T06:53:48.894Z,58.79
2022-11-16T06:56:17.553Z,58.81
2022-11-16T06:58:53.527Z,58.71
2022-11-16T07:01:23.031Z,58.56
2022-11-16T07:03:57.644Z,58.42
2022-11-16T07:06:27.052Z,58.04
2022-11-16T07:08:57.666Z,58.28
2022-11-16T07:11:30.059Z,58.31
2022-11-16T07:13:59.815Z,57.97
2022-11-16T07:16:29.707Z,58.17
2022-11-16T07:19:02.210Z,58.15
2022-11-16T07:21:32.963Z,58.05
2022-11-16T07:24:04.017Z,57.74
2022-11-16T07:26:34.150Z,57.93
2022-11-16T07:29:08.461Z,57.84
2022-11-16T07:31:40.874Z,58.04
2022-11-16T07:34:28.395Z,57.84
2022-11-16T07:37:09.070Z,57.76
2022-11-16T07:39:37.171Z,57.50
2022-11-16T07:42:11.902Z,57.74
2022-11-16T07:44:54.936Z,57.62
2022-11-16T07:47:22.997Z,57.78
2022-11-16T07:49:51.339Z,57.75
2022-11-16T07:52:21.804Z,57.74
2022-11-16T07:54:58.889Z,57.72
2022-11-16T07:57:29.038Z,57.56
2022-11-16T08:00:00.823Z,57.12
2022-11-16T08:02:30.713Z,57.44
2022-11-16T08:04:58.788Z,57.19
2022-11-16T08:07:29.212Z,57.29
2022-11-16T08:09:57.875Z,57.12
2022-11-16T08:12:26.503Z,57.25
2022-11-16T08:14:55.904Z,57.25
2022-11-16T08:17:24.706Z,57.22
2022-11-16T08:19:54.725Z,57.17
2022-11-16T08:22:23.392Z,56.74
2022-11-16T08:24:51.860Z,57.03
2022-11-16T08:27:19.916Z,56.97
2022-11-16T08:29:52.336Z,57.06
2022-11-16T08:32:20.526Z,57.00
2022-11-16T08:34:48.633Z,56.96
2022-11-16T08:37:17.405Z,56.98
2022-11-16T08:39:46.710Z,57.11
2022-11-16T08:42:14.890Z,57.11
2022-11-16T08:44:47.554Z,56.97
2022-11-16T08:47:17.902Z,56.96
2022-11-16T08:49:52.949Z,57.18
2022-11-16T08:52:22.459Z,57.03
2022-11-16T08:54:52.359Z,57.05
2022-11-16T08:57:20.424Z,56.96
2022-11-16T08:59:53.325Z,57.05
2022-11-16T09:02:25.689Z,57.11
2022-11-16T09:04:54.396Z,56.97
2022-11-16T09:07:23.028Z,57.02
2022-11-16T09:09:51.168Z,57.13
2022-11-16T09:12:20.079Z,57.08
2022-11-16T09:14:48.187Z,57.45
2022-11-16T09:17:21.742Z,57.50
2022-11-16T09:19:51.063Z,57.39
2022-11-16T09:22:19.134Z,57.40
2022-11-16T09:24:47.591Z,57.36
2022-11-16T09:27:16.637Z,57.19
2022-11-16T09:29:44.817Z,57.00
2022-11-16T09:32:13.140Z,56.97
2022-11-16T09:34:41.246Z,56.98
2022-11-16T09:37:09.740Z,56.77
2022-11-16T09:39:37.891Z,56.76
2022-11-16T09:42:38.472Z,56.53
2022-11-16T09:45:35.471Z,56.36
2022-11-16T09:48:06.808Z,56.37
2022-11-16T09:50:59.263Z,56.31
2022-11-16T09:53:34.688Z,56.39
2022-11-16T09:56:27.333Z,56.40
2022-11-16T09:59:23.027Z,56.44
2022-11-16T10:02:19.786Z,56.22
2022-11-16T10:05:46.919Z,55.96
2022-11-16T10:08:22.774Z,54.70
2022-11-16T10:11:26.148Z,55.17
2022-11-16T10:14:35.767Z,55.13
2022-11-16T10:17:22.188Z,54.65
2022-11-16T10:20:02.264Z,54.87
2022-11-16T10:22:45.588Z,55.05
2022-11-16T10:25:45.744Z,54.88
2022-11-16T10:28:31.560Z,54.92
2022-11-16T10:31:29.207Z,54.99
2022-11-16T10:34:01.798Z,54.72
2022-11-16T10:36:36.243Z,54.56
2022-11-16T10:39:14.525Z,54.84
2022-11-16T10:41:53.187Z,54.78
2022-11-16T10:44:38.678Z,54.83
2022-11-16T10:47:28.193Z,54.56
2022-11-16T10:50:22.839Z,54.33
2022-11-16T10:52:50.896Z,54.18
2022-11-16T10:55:21.997Z,54.26
2022-11-16T10:58:01.127Z,54.54
2022-11-16T11:00:53.101Z,54.54
2022-11-16T11:03:32.303Z,54.34
2022-11-16T11:06:00.892Z,54.38
2022-11-16T11:08:32.105Z,54.47
2022-11-16T11:11:42.394Z,54.38
2022-11-16T11:14:16.597Z,54.56
2022-11-16T11:16:44.689Z,53.64
2022-11-16T11:19:25.755Z,53.18
2022-11-16T11:22:01.008Z,52.29
2022-11-16T11:24:45.546Z,51.95
2022-11-16T11:27:14.208Z,52.12
2022-11-16T11:29:43.733Z,51.04
2022-11-16T11:32:23.566Z,51.41
2022-11-16T11:34:58.017Z,51.56
2022-11-16T11:37:34.207Z,52.28
2022-11-16T11:40:21.065Z,50.24
2022-11-16T11:43:01.992Z,50.00
2022-11-16T11:45:52.414Z,50.96
2022-11-16T11:48:49.651Z,50.76
2022-11-16T11:51:33.673Z,49.94
2022-11-16T11:54:05.116Z,50.53
2022-11-16T11:56:34.323Z,49.87
2022-11-16T11:59:05.001Z,49.90
2022-11-16T12:01:46.900Z,49.76
2022-11-16T12:04:41.509Z,50.50
2022-11-16T12:07:21.246Z,50.45
2022-11-16T12:10:26.637Z,50.77
2022-11-16T12:13:39.822Z,50.90
2022-11-16T12:16:37.796Z,50.48
2022-11-16T12:19:57.358Z,50.28
2022-11-16T12:23:22.063Z,50.66
2022-11-16T12:26:20.518Z,50.38
2022-11-16T12:29:25.686Z,50.49
2022-11-16T12:32:43.694Z,50.49
2022-11-16T12:35:48.714Z,49.73
2022-11-16T12:38:29.880Z,48.72
2022-11-16T12:41:36.011Z,48.56
2022-11-16T12:44:11.284Z,48.14
2022-11-16T12:47:03.126Z,47.74
2022-11-16T12:50:19.117Z,46.44
2022-11-16T12:53:17.051Z,46.37
2022-11-16T12:56:23.055Z,44.81
2022-11-16T12:59:17.778Z,45.63
2022-11-16T13:02:28.732Z,45.07
2022-11-16T13:05:33.287Z,42.48
2022-11-16T13:08:16.829Z,43.58
2022-11-16T13:10:49.469Z,42.96
2022-11-16T13:13:36.274Z,43.24
2022-11-16T13:16:07.377Z,42.18
2022-11-16T13:18:41.458Z,41.91
2022-11-16T13:21:27.418Z,42.51
2022-11-16T13:24:12.545Z,41.88
2022-11-16T13:27:25.629Z,42.77
2022-11-16T13:30:28.995Z,40.51
2022-11-16T13:33:19.375Z,41.74
2022-11-16T13:35:47.692Z,41.61
2022-11-16T13:38:52.859Z,41.39
2022-11-16T13:41:35.580Z,40.69
2022-11-16T13:44:11.220Z,40.98
2022-11-16T13:46:57.421Z,41.17
2022-11-16T13:49:56.847Z,40.45
2022-11-16T13:55:44.608Z,41.29
2022-11-16T13:58:22.281Z,41.60
2022-11-16T14:01:03.768Z,41.73
2022-11-16T14:03:49.164Z,42.07
2022-11-16T14:06:20.257Z,42.17
2022-11-16T14:08:53.125Z,42.22
2022-11-16T14:11:37.539Z,42.43
2022-11-16T14:14:11.736Z,42.10
2022-11-16T14:16:51.333Z,42.18
2022-11-16T14:19:52.182Z,42.28
2022-11-16T14:23:16.424Z,42.32
2022-11-16T14:25:51.596Z,41.78
2022-11-16T14:28:48.345Z,41.98
2022-11-16T14:31:26.295Z,42.42
2022-11-16T14:33:58.791Z,42.03
2022-11-16T14:36:46.194Z,42.23
2022-11-16T14:39:43.686Z,42.50
2022-11-16T14:42:54.416Z,42.26
2022-11-16T14:45:32.165Z,42.27
2022-11-16T14:48:19.458Z,42.31
2022-11-16T14:51:16.578Z,42.25
2022-11-16T14:54:01.331Z,42.68
2022-11-16T14:56:29.422Z,42.06
2022-11-16T14:59:00.985Z,42.00
2022-11-16T15:01:38.918Z,42.19
2022-11-16T15:04:11.181Z,42.45
2022-11-16T15:06:50.159Z,42.29
2022-11-16T15:09:47.564Z,42.46
2022-11-16T15:12:39.147Z,42.66
2022-11-16T15:15:11.457Z,42.86
2022-11-16T15:17:45.394Z,43.21
2022-11-16T15:20:24.396Z,43.22
2022-11-16T15:22:55.253Z,42.82
2022-11-16T15:25:43.839Z,42.63
2022-11-16T15:28:27.882Z,43.22
2022-11-16T15:31:00.901Z,43.24
2022-11-16T15:33:42.054Z,43.40
2022-11-16T15:36:42.680Z,43.64
2022-11-16T15:39:27.679Z,43.61
2022-11-16T15:42:00.553Z,43.62
2022-11-16T15:44:33.313Z,43.78
2022-11-16T15:47:04.143Z,43.49
2022-11-16T15:49:37.384Z,43.78
2022-11-16T15:52:06.065Z,43.58
2022-11-16T15:54:54.930Z,43.72
2022-11-16T15:57:24.192Z,43.88
2022-11-16T15:59:57.470Z,43.92
2022-11-16T16:02:31.768Z,43.99
2022-11-16T16:04:59.846Z,43.99
2022-11-16T16:07:42.686Z,44.26
2022-11-16T16:10:18.209Z,44.23
2022-11-16T16:13:26.005Z,44.54
2022-11-16T16:16:28.309Z,44.67
2022-11-16T16:19:04.964Z,44.81
2022-11-16T16:21:44.152Z,44.90
2022-11-16T16:24:46.323Z,45.12
2022-11-16T16:27:21.115Z,44.94
2022-11-16T16:29:52.798Z,45.36
2022-11-16T16:32:29.384Z,45.34
2022-11-16T16:35:09.011Z,45.51
2022-11-16T16:37:37.318Z,45.55
2022-11-16T16:40:06.353Z,45.56
2022-11-16T16:42:34.435Z,45.75
2022-11-16T16:45:02.881Z,45.71
2022-11-16T16:47:31.678Z,45.91
2022-11-16T16:49:59.890Z,45.80
2022-11-16T16:52:27.965Z,45.88
2022-11-16T16:54:56.071Z,46.01
2022-11-16T16:57:24.128Z,46.10
2022-11-16T16:59:52.211Z,46.13
2022-11-16T17:02:20.294Z,46.25
2022-11-16T17:04:49.095Z,46.33
2022-11-16T17:07:17.522Z,46.35
2022-11-16T17:09:45.761Z,46.34
2022-11-16T17:12:13.822Z,46.33
2022-11-16T17:14:42.162Z,46.60
2022-11-16T17:17:10.351Z,46.65
2022-11-16T17:19:38.443Z,46.67
2022-11-16T17:22:06.514Z,46.75
2022-11-16T17:24:35.810Z,46.69
2022-11-16T17:27:04.501Z,46.91
2022-11-16T17:29:32.590Z,46.61
2022-11-16T17:32:00.775Z,46.65
2022-11-16T17:34:28.862Z,46.69
2022-11-16T17:36:57.069Z,46.86
2022-11-16T17:39:25.274Z,46.64
2022-11-16T17:41:53.358Z,46.65
2022-11-16T17:44:22.043Z,46.78
2022-11-16T17:46:50.472Z,46.73
2022-11-16T17:49:18.540Z,46.88
2022-11-16T17:51:46.652Z,46.79
2022-11-16T17:54:14.971Z,46.96
2022-11-16T17:56:43.406Z,47.08
2022-11-16T17:59:11.473Z,47.07
2022-11-16T18:01:39.641Z,47.17
2022-11-16T18:04:07.768Z,47.27
2022-11-16T18:06:35.855Z,47.29
2022-11-16T18:09:04.039Z,47.35
2022-11-16T18:11:32.242Z,47.44
2022-11-16T18:14:01.645Z,47.46
2022-11-16T18:16:32.752Z,47.41
2022-11-16T18:19:05.392Z,47.60
2022-11-16T18:21:42.586Z,47.51
2022-11-16T18:24:11.014Z,47.77
2022-11-16T18:26:40.791Z,47.70
2022-11-16T18:29:12.841Z,47.61
2022-11-16T18:31:40.918Z,47.66
2022-11-16T18:34:11.746Z,47.76
2022-11-16T18:36:39.835Z,47.74
2022-11-16T18:39:08.390Z,47.77
2022-11-16T18:41:36.609Z,47.78
2022-11-16T18:44:06.361Z,47.81
2022-11-16T18:46:34.462Z,47.72
2022-11-16T18:49:02.518Z,47.92
2022-11-16T18:51:31.083Z,47.88
2022-11-16T18:53:59.162Z,47.85
2022-11-16T18:56:27.387Z,47.76
2022-11-16T18:58:55.447Z,47.99
2022-11-16T19:01:26.123Z,47.82
2022-11-16T19:03:56.062Z,47.87
2022-11-16T19:06:24.857Z,48.07
2022-11-16T19:08:59.395Z,48.01
2022-11-16T19:11:28.870Z,47.97
2022-11-16T19:14:04.376Z,47.89
2022-11-16T19:16:32.692Z,48.10
2022-11-16T19:19:01.614Z,47.80
2022-11-16T19:21:30.046Z,48.04
2022-11-16T19:23:58.115Z,47.94
2022-11-16T19:26:28.377Z,47.98
2022-11-16T19:28:56.556Z,48.15
2022-11-16T19:31:30.182Z,48.06
2022-11-16T19:34:05.249Z,48.29
2022-11-16T19:36:36.571Z,48.26
2022-11-16T19:39:05.692Z,48.30
2022-11-16T19:41:33.902Z,48.88
2022-11-16T19:44:02.250Z,48.69
2022-11-16T19:46:32.934Z,48.81
2022-11-16T19:49:01.614Z,48.62
2022-11-16T19:51:32.585Z,48.87
2022-11-16T19:54:02.464Z,48.82
2022-11-16T19:56:30.558Z,48.65
2022-11-16T19:58:58.634Z,48.56
2022-11-16T20:01:29.667Z,49.04
2022-11-16T20:04:00.933Z,48.49
2022-11-16T20:06:35.245Z,48.49
2022-11-16T20:09:10.036Z,48.44
2022-11-16T20:11:41.776Z,48.36
2022-11-16T20:14:12.061Z,48.40
2022-11-16T20:16:42.442Z,48.50
2022-11-16T20:19:11.367Z,48.39
2022-11-16T20:21:42.212Z,48.44
2022-11-16T20:24:13.528Z,48.50
2022-11-16T20:26:48.092Z,48.50
2022-11-16T20:29:18.822Z,48.48
2022-11-16T20:31:47.255Z,48.76
2022-11-16T20:34:17.637Z,48.41
2022-11-16T20:36:47.640Z,48.43
2022-11-16T20:39:20.381Z,48.37
2022-11-16T20:41:49.440Z,48.28
2022-11-16T20:44:21.471Z,48.48
2022-11-16T20:46:52.213Z,48.64
2022-11-16T20:49:20.396Z,48.70
2022-11-16T20:51:49.693Z,48.54
2022-11-16T20:54:17.757Z,48.74
2022-11-16T20:56:45.959Z,48.50
2022-11-16T20:59:14.046Z,48.43
2022-11-16T21:01:47.773Z,48.55
2022-11-16T21:04:16.104Z,48.32
2022-11-16T21:06:44.432Z,48.13
2022-11-16T21:09:15.614Z,48.38
2022-11-16T21:12:02.318Z,48.35
2022-11-16T21:14:30.378Z,48.56
2022-11-16T21:16:58.475Z,48.42
2022-11-16T21:19:26.542Z,48.39
2022-11-16T21:21:54.647Z,48.39
2022-11-16T21:24:24.908Z,48.76
2022-11-16T21:26:53.451Z,48.80
2022-11-16T21:29:25.989Z,48.70
2022-11-16T21:31:54.161Z,48.73
2022-11-16T21:34:24.519Z,48.70
2022-11-16T21:36:52.625Z,48.74
2022-11-16T21:39:20.800Z,49.05
2022-11-16T21:41:48.907Z,49.25
2022-11-16T21:44:16.981Z,49.11
2022-11-16T21:46:45.070Z,49.28
2022-11-16T21:49:13.134Z,49.70
2022-11-16T21:51:41.334Z,49.12
2022-11-16T21:54:09.441Z,49.46
2022-11-16T21:56:37.497Z,49.34
2022-11-16T21:59:06.205Z,49.56
2022-11-16T22:01:54.383Z,49.80
2022-11-16T22:04:41.239Z,49.32
2022-11-16T22:07:35.931Z,49.43
2022-11-16T22:10:10.511Z,49.39
2022-11-16T22:12:39.089Z,49.46
2022-11-16T22:15:09.315Z,49.79
2022-11-16T22:17:41.382Z,49.67
2022-11-16T22:20:10.290Z,49.44
2022-11-16T22:22:38.375Z,49.68
2022-11-16T22:25:07.286Z,49.73
2022-11-16T22:27:47.005Z,49.50
2022-11-16T22:30:23.731Z,49.34
2022-11-16T22:32:51.933Z,49.61
2022-11-16T22:35:20.015Z,49.66
2022-11-16T22:37:48.127Z,49.34
2022-11-16T22:40:17.928Z,49.45
2022-11-16T22:42:46.684Z,49.55
2022-11-16T22:45:14.744Z,49.56
2022-11-16T22:47:42.961Z,49.47
2022-11-16T22:50:11.032Z,49.50
2022-11-16T22:52:39.132Z,49.53
2022-11-16T22:55:07.676Z,49.41
2022-11-16T22:57:35.780Z,49.44
2022-11-16T23:00:06.719Z,49.36
2022-11-16T23:02:34.940Z,49.07
2022-11-16T23:05:03.016Z,49.18
2022-11-16T23:07:31.187Z,49.09
2022-11-16T23:09:59.289Z,49.07
2022-11-16T23:12:46.339Z,49.13
2022-11-16T23:15:33.628Z,49.37
2022-11-16T23:18:01.819Z,49.18
2022-11-16T23:20:48.644Z,49.43
2022-11-16T23:23:38.929Z,49.29
2022-11-16T23:26:38.186Z,49.24
2022-11-16T23:29:10.109Z,49.56
2022-11-16T23:31:38.582Z,49.49
2022-11-16T23:34:06.634Z,49.62
2022-11-16T23:36:34.731Z,49.40
2022-11-16T23:39:02.799Z,49.69
2022-11-16T23:41:49.283Z,50.11
2022-11-16T23:44:17.323Z,50.04
2022-11-16T23:46:45.787Z,50.01
2022-11-16T23:49:13.848Z,50.23
2022-11-16T23:51:41.831Z,50.15
2022-11-16T23:54:10.133Z,50.13
2022-11-16T23:56:38.250Z,50.15
2022-11-16T23:59:06.298Z,50.05
